sensor_id;sensor_type;location;lat;lon;timestamp;pressure;altitude;pressure_sealevel;temperature
8362;BMP180;4218;48.326;14.304;2023-08-17T00:02:20;98590.00;;;18.70
8362;BMP180;4218;48.326;14.304;2023-08-17T00:04:45;98595.00;;;18.50
8362;BMP180;4218;48.326;14.304;2023-08-17T00:07:11;98594.00;;;18.50
8362;BMP180;4218;48.326;14.304;2023-08-17T00:09:36;98598.00;;;18.30
8362;BMP180;4218;48.326;14.304;2023-08-17T00:12:02;98587.00;;;18.20
8362;BMP180;4218;48.326;14.304;2023-08-17T00:14:27;98596.00;;;18.20
8362;BMP180;4218;48.326;14.304;2023-08-17T00:16:52;98593.00;;;18.10
8362;BMP180;4218;48.326;14.304;2023-08-17T00:19:18;98585.00;;;18.10
8362;BMP180;4218;48.326;14.304;2023-08-17T00:21:44;98585.00;;;18.10
8362;BMP180;4218;48.326;14.304;2023-08-17T00:24:10;98588.00;;;18.10
8362;BMP180;4218;48.326;14.304;2023-08-17T00:26:35;98578.00;;;18.10
8362;BMP180;4218;48.326;14.304;2023-08-17T00:29:01;98585.00;;;18.00
8362;BMP180;4218;48.326;14.304;2023-08-17T00:31:26;98570.00;;;18.00
8362;BMP180;4218;48.326;14.304;2023-08-17T00:33:52;98566.00;;;18.00
8362;BMP180;4218;48.326;14.304;2023-08-17T00:36:17;98572.00;;;18.30
8362;BMP180;4218;48.326;14.304;2023-08-17T00:38:43;98564.00;;;18.50
8362;BMP180;4218;48.326;14.304;2023-08-17T00:41:08;98563.00;;;18.30
8362;BMP180;4218;48.326;14.304;2023-08-17T00:43:33;98565.00;;;18.10
8362;BMP180;4218;48.326;14.304;2023-08-17T00:45:59;98561.00;;;18.00
8362;BMP180;4218;48.326;14.304;2023-08-17T00:48:26;98553.00;;;18.00
8362;BMP180;4218;48.326;14.304;2023-08-17T00:50:52;98554.00;;;17.90
8362;BMP180;4218;48.326;14.304;2023-08-17T00:53:19;98545.00;;;17.80
8362;BMP180;4218;48.326;14.304;2023-08-17T00:55:45;98543.00;;;17.70
8362;BMP180;4218;48.326;14.304;2023-08-17T00:58:11;98556.00;;;17.70
8362;BMP180;4218;48.326;14.304;2023-08-17T01:00:37;98552.00;;;17.70
8362;BMP180;4218;48.326;14.304;2023-08-17T01:03:03;98554.00;;;17.70
8362;BMP180;4218;48.326;14.304;2023-08-17T01:05:29;98551.00;;;17.80
8362;BMP180;4218;48.326;14.304;2023-08-17T01:07:56;98551.00;;;17.80
8362;BMP180;4218;48.326;14.304;2023-08-17T01:10:22;98551.00;;;18.00
8362;BMP180;4218;48.326;14.304;2023-08-17T01:17:56;98568.00;;;17.80
8362;BMP180;4218;48.326;14.304;2023-08-17T01:20:24;98576.00;;;17.80
8362;BMP180;4218;48.326;14.304;2023-08-17T01:22:52;98569.00;;;17.80
8362;BMP180;4218;48.326;14.304;2023-08-17T01:25:18;98563.00;;;17.80
8362;BMP180;4218;48.326;14.304;2023-08-17T01:27:45;98562.00;;;17.70
8362;BMP180;4218;48.326;14.304;2023-08-17T01:30:13;98557.00;;;17.70
8362;BMP180;4218;48.326;14.304;2023-08-17T01:32:57;98561.00;;;17.70
8362;BMP180;4218;48.326;14.304;2023-08-17T01:38:06;98569.00;;;17.60
8362;BMP180;4218;48.326;14.304;2023-08-17T01:40:33;98573.00;;;17.60
8362;BMP180;4218;48.326;14.304;2023-08-17T01:43:00;98571.00;;;17.50
8362;BMP180;4218;48.326;14.304;2023-08-17T01:45:29;98567.00;;;17.50
8362;BMP180;4218;48.326;14.304;2023-08-17T01:47:55;98565.00;;;17.50
8362;BMP180;4218;48.326;14.304;2023-08-17T01:50:21;98566.00;;;17.60
8362;BMP180;4218;48.326;14.304;2023-08-17T01:52:46;98559.00;;;17.60
8362;BMP180;4218;48.326;14.304;2023-08-17T01:55:12;98564.00;;;17.60
8362;BMP180;4218;48.326;14.304;2023-08-17T01:57:37;98565.00;;;17.70
8362;BMP180;4218;48.326;14.304;2023-08-17T02:00:04;98566.00;;;17.80
8362;BMP180;4218;48.326;14.304;2023-08-17T02:02:30;98560.00;;;17.70
8362;BMP180;4218;48.326;14.304;2023-08-17T02:04:55;98566.00;;;17.60
8362;BMP180;4218;48.326;14.304;2023-08-17T02:07:21;98566.00;;;17.50
8362;BMP180;4218;48.326;14.304;2023-08-17T02:09:46;98567.00;;;17.40
8362;BMP180;4218;48.326;14.304;2023-08-17T02:12:11;98572.00;;;17.50
8362;BMP180;4218;48.326;14.304;2023-08-17T02:14:37;98568.00;;;17.50
8362;BMP180;4218;48.326;14.304;2023-08-17T02:17:02;98575.00;;;17.50
8362;BMP180;4218;48.326;14.304;2023-08-17T02:19:27;98573.00;;;17.30
8362;BMP180;4218;48.326;14.304;2023-08-17T02:21:53;98580.00;;;17.30
8362;BMP180;4218;48.326;14.304;2023-08-17T02:24:18;98587.00;;;17.30
8362;BMP180;4218;48.326;14.304;2023-08-17T02:26:43;98583.00;;;17.30
8362;BMP180;4218;48.326;14.304;2023-08-17T02:29:09;98590.00;;;17.40
8362;BMP180;4218;48.326;14.304;2023-08-17T02:31:34;98593.00;;;17.40
8362;BMP180;4218;48.326;14.304;2023-08-17T02:33:59;98588.00;;;17.50
8362;BMP180;4218;48.326;14.304;2023-08-17T02:36:30;98586.00;;;17.40
8362;BMP180;4218;48.326;14.304;2023-08-17T02:38:56;98581.00;;;17.30
8362;BMP180;4218;48.326;14.304;2023-08-17T02:41:21;98576.00;;;17.20
8362;BMP180;4218;48.326;14.304;2023-08-17T02:43:47;98576.00;;;17.20
8362;BMP180;4218;48.326;14.304;2023-08-17T02:46:12;98573.00;;;17.20
8362;BMP180;4218;48.326;14.304;2023-08-17T02:48:37;98574.00;;;17.30
8362;BMP180;4218;48.326;14.304;2023-08-17T02:51:03;98574.00;;;17.30
8362;BMP180;4218;48.326;14.304;2023-08-17T02:53:28;98577.00;;;17.30
8362;BMP180;4218;48.326;14.304;2023-08-17T02:55:54;98563.00;;;17.30
8362;BMP180;4218;48.326;14.304;2023-08-17T02:58:19;98559.00;;;17.20
8362;BMP180;4218;48.326;14.304;2023-08-17T03:00:44;98567.00;;;17.20
8362;BMP180;4218;48.326;14.304;2023-08-17T03:03:10;98560.00;;;17.20
8362;BMP180;4218;48.326;14.304;2023-08-17T03:05:35;98565.00;;;17.20
8362;BMP180;4218;48.326;14.304;2023-08-17T03:08:01;98567.00;;;17.20
8362;BMP180;4218;48.326;14.304;2023-08-17T03:10:26;98561.00;;;17.10
8362;BMP180;4218;48.326;14.304;2023-08-17T03:12:51;98567.00;;;17.00
8362;BMP180;4218;48.326;14.304;2023-08-17T03:15:17;98560.00;;;17.00
8362;BMP180;4218;48.326;14.304;2023-08-17T03:17:42;98559.00;;;17.00
8362;BMP180;4218;48.326;14.304;2023-08-17T03:20:08;98556.00;;;17.00
8362;BMP180;4218;48.326;14.304;2023-08-17T03:22:34;98553.00;;;17.00
8362;BMP180;4218;48.326;14.304;2023-08-17T03:25:00;98558.00;;;17.10
8362;BMP180;4218;48.326;14.304;2023-08-17T03:27:25;98563.00;;;17.20
8362;BMP180;4218;48.326;14.304;2023-08-17T03:29:51;98564.00;;;17.30
8362;BMP180;4218;48.326;14.304;2023-08-17T03:32:16;98557.00;;;17.20
8362;BMP180;4218;48.326;14.304;2023-08-17T03:34:42;98555.00;;;17.40
8362;BMP180;4218;48.326;14.304;2023-08-17T03:37:07;98549.00;;;17.30
8362;BMP180;4218;48.326;14.304;2023-08-17T03:39:32;98538.00;;;17.30
8362;BMP180;4218;48.326;14.304;2023-08-17T03:41:58;98543.00;;;17.30
8362;BMP180;4218;48.326;14.304;2023-08-17T03:44:23;98545.00;;;17.30
8362;BMP180;4218;48.326;14.304;2023-08-17T03:46:49;98553.00;;;17.20
8362;BMP180;4218;48.326;14.304;2023-08-17T03:49:14;98562.00;;;17.10
8362;BMP180;4218;48.326;14.304;2023-08-17T03:51:39;98559.00;;;17.00
8362;BMP180;4218;48.326;14.304;2023-08-17T03:54:05;98564.00;;;16.90
8362;BMP180;4218;48.326;14.304;2023-08-17T03:56:30;98562.00;;;16.90
8362;BMP180;4218;48.326;14.304;2023-08-17T03:58:56;98556.00;;;16.90
8362;BMP180;4218;48.326;14.304;2023-08-17T04:01:21;98556.00;;;16.80
8362;BMP180;4218;48.326;14.304;2023-08-17T04:03:47;98567.00;;;16.90
8362;BMP180;4218;48.326;14.304;2023-08-17T04:06:12;98573.00;;;17.20
8362;BMP180;4218;48.326;14.304;2023-08-17T04:08:38;98576.00;;;17.40
8362;BMP180;4218;48.326;14.304;2023-08-17T04:11:03;98573.00;;;17.30
8362;BMP180;4218;48.326;14.304;2023-08-17T04:13:29;98579.00;;;17.20
8362;BMP180;4218;48.326;14.304;2023-08-17T04:15:54;98584.00;;;17.10
8362;BMP180;4218;48.326;14.304;2023-08-17T04:18:20;98586.00;;;17.10
8362;BMP180;4218;48.326;14.304;2023-08-17T04:20:45;98581.00;;;17.00
8362;BMP180;4218;48.326;14.304;2023-08-17T04:23:11;98577.00;;;16.90
8362;BMP180;4218;48.326;14.304;2023-08-17T04:25:36;98576.00;;;16.90
8362;BMP180;4218;48.326;14.304;2023-08-17T04:28:02;98573.00;;;16.90
8362;BMP180;4218;48.326;14.304;2023-08-17T04:30:27;98582.00;;;17.00
8362;BMP180;4218;48.326;14.304;2023-08-17T04:32:55;98584.00;;;17.00
8362;BMP180;4218;48.326;14.304;2023-08-17T04:35:21;98589.00;;;17.10
8362;BMP180;4218;48.326;14.304;2023-08-17T04:37:47;98592.00;;;17.10
8362;BMP180;4218;48.326;14.304;2023-08-17T04:40:12;98597.00;;;17.10
8362;BMP180;4218;48.326;14.304;2023-08-17T04:42:39;98598.00;;;17.10
8362;BMP180;4218;48.326;14.304;2023-08-17T04:45:04;98602.00;;;17.10
8362;BMP180;4218;48.326;14.304;2023-08-17T04:47:30;98607.00;;;17.20
8362;BMP180;4218;48.326;14.304;2023-08-17T04:49:55;98600.00;;;17.10
8362;BMP180;4218;48.326;14.304;2023-08-17T04:52:21;98600.00;;;17.30
8362;BMP180;4218;48.326;14.304;2023-08-17T04:54:46;98594.00;;;17.40
8362;BMP180;4218;48.326;14.304;2023-08-17T04:57:11;98587.00;;;17.60
8362;BMP180;4218;48.326;14.304;2023-08-17T04:59:37;98592.00;;;17.80
8362;BMP180;4218;48.326;14.304;2023-08-17T05:02:02;98586.00;;;17.70
8362;BMP180;4218;48.326;14.304;2023-08-17T05:04:29;98594.00;;;17.60
8362;BMP180;4218;48.326;14.304;2023-08-17T05:06:56;98598.00;;;17.60
8362;BMP180;4218;48.326;14.304;2023-08-17T05:09:22;98595.00;;;17.60
8362;BMP180;4218;48.326;14.304;2023-08-17T05:11:47;98596.00;;;17.70
8362;BMP180;4218;48.326;14.304;2023-08-17T05:14:12;98594.00;;;17.70
8362;BMP180;4218;48.326;14.304;2023-08-17T05:16:38;98596.00;;;17.70
8362;BMP180;4218;48.326;14.304;2023-08-17T05:19:03;98601.00;;;17.70
8362;BMP180;4218;48.326;14.304;2023-08-17T05:21:29;98607.00;;;17.60
8362;BMP180;4218;48.326;14.304;2023-08-17T05:23:55;98602.00;;;17.60
8362;BMP180;4218;48.326;14.304;2023-08-17T05:26:20;98601.00;;;17.60
8362;BMP180;4218;48.326;14.304;2023-08-17T05:28:46;98601.00;;;17.70
8362;BMP180;4218;48.326;14.304;2023-08-17T05:31:11;98608.00;;;17.80
8362;BMP180;4218;48.326;14.304;2023-08-17T05:33:37;98607.00;;;17.80
8362;BMP180;4218;48.326;14.304;2023-08-17T05:36:02;98611.00;;;17.90
8362;BMP180;4218;48.326;14.304;2023-08-17T05:38:28;98605.00;;;18.00
8362;BMP180;4218;48.326;14.304;2023-08-17T05:40:57;98606.00;;;18.00
8362;BMP180;4218;48.326;14.304;2023-08-17T05:43:23;98596.00;;;18.10
8362;BMP180;4218;48.326;14.304;2023-08-17T05:45:48;98609.00;;;18.30
8362;BMP180;4218;48.326;14.304;2023-08-17T05:48:14;98611.00;;;18.30
8362;BMP180;4218;48.326;14.304;2023-08-17T05:50:42;98611.00;;;18.30
8362;BMP180;4218;48.326;14.304;2023-08-17T05:53:08;98611.00;;;18.30
8362;BMP180;4218;48.326;14.304;2023-08-17T05:55:33;98612.00;;;18.30
8362;BMP180;4218;48.326;14.304;2023-08-17T05:57:59;98609.00;;;18.40
8362;BMP180;4218;48.326;14.304;2023-08-17T06:00:24;98618.00;;;18.60
8362;BMP180;4218;48.326;14.304;2023-08-17T06:02:50;98618.00;;;18.70
8362;BMP180;4218;48.326;14.304;2023-08-17T06:05:17;98621.00;;;19.00
8362;BMP180;4218;48.326;14.304;2023-08-17T06:07:43;98616.00;;;19.30
8362;BMP180;4218;48.326;14.304;2023-08-17T06:10:09;98619.00;;;19.40
8362;BMP180;4218;48.326;14.304;2023-08-17T06:12:40;98623.00;;;19.50
8362;BMP180;4218;48.326;14.304;2023-08-17T06:15:14;98616.00;;;19.50
8362;BMP180;4218;48.326;14.304;2023-08-17T06:17:48;98618.00;;;19.30
8362;BMP180;4218;48.326;14.304;2023-08-17T06:20:26;98615.00;;;19.30
8362;BMP180;4218;48.326;14.304;2023-08-17T06:22:57;98606.00;;;19.30
8362;BMP180;4218;48.326;14.304;2023-08-17T06:25:22;98600.00;;;19.30
8362;BMP180;4218;48.326;14.304;2023-08-17T06:27:53;98601.00;;;19.30
8362;BMP180;4218;48.326;14.304;2023-08-17T06:30:19;98608.00;;;19.50
8362;BMP180;4218;48.326;14.304;2023-08-17T06:32:45;98595.00;;;19.60
8362;BMP180;4218;48.326;14.304;2023-08-17T06:35:13;98599.00;;;19.50
8362;BMP180;4218;48.326;14.304;2023-08-17T06:37:42;98604.00;;;19.60
8362;BMP180;4218;48.326;14.304;2023-08-17T06:40:12;98600.00;;;19.60
8362;BMP180;4218;48.326;14.304;2023-08-17T06:42:38;98603.00;;;19.70
8362;BMP180;4218;48.326;14.304;2023-08-17T06:45:05;98601.00;;;19.70
8362;BMP180;4218;48.326;14.304;2023-08-17T06:47:43;98611.00;;;19.80
8362;BMP180;4218;48.326;14.304;2023-08-17T06:50:11;98609.00;;;19.90
8362;BMP180;4218;48.326;14.304;2023-08-17T06:52:37;98604.00;;;20.10
8362;BMP180;4218;48.326;14.304;2023-08-17T06:55:04;98613.00;;;20.30
8362;BMP180;4218;48.326;14.304;2023-08-17T06:57:31;98616.00;;;20.30
8362;BMP180;4218;48.326;14.304;2023-08-17T06:59:59;98609.00;;;20.40
8362;BMP180;4218;48.326;14.304;2023-08-17T07:02:26;98610.00;;;20.60
8362;BMP180;4218;48.326;14.304;2023-08-17T07:04:52;98601.00;;;20.80
8362;BMP180;4218;48.326;14.304;2023-08-17T07:07:18;98607.00;;;21.00
8362;BMP180;4218;48.326;14.304;2023-08-17T07:09:43;98603.00;;;21.00
8362;BMP180;4218;48.326;14.304;2023-08-17T07:12:09;98598.00;;;21.00
8362;BMP180;4218;48.326;14.304;2023-08-17T07:14:34;98602.00;;;21.00
8362;BMP180;4218;48.326;14.304;2023-08-17T07:17:08;98603.00;;;21.20
8362;BMP180;4218;48.326;14.304;2023-08-17T07:19:34;98604.00;;;21.20
8362;BMP180;4218;48.326;14.304;2023-08-17T07:21:59;98604.00;;;21.30
8362;BMP180;4218;48.326;14.304;2023-08-17T07:24:26;98614.00;;;21.40
8362;BMP180;4218;48.326;14.304;2023-08-17T07:26:53;98612.00;;;21.30
8362;BMP180;4218;48.326;14.304;2023-08-17T07:29:27;98617.00;;;21.40
8362;BMP180;4218;48.326;14.304;2023-08-17T07:31:52;98625.00;;;21.40
8362;BMP180;4218;48.326;14.304;2023-08-17T07:34:20;98623.00;;;21.60
8362;BMP180;4218;48.326;14.304;2023-08-17T07:36:46;98623.00;;;21.60
8362;BMP180;4218;48.326;14.304;2023-08-17T07:39:13;98624.00;;;21.80
8362;BMP180;4218;48.326;14.304;2023-08-17T07:41:39;98624.00;;;21.70
8362;BMP180;4218;48.326;14.304;2023-08-17T07:44:10;98632.00;;;21.80
8362;BMP180;4218;48.326;14.304;2023-08-17T07:46:36;98631.00;;;21.90
8362;BMP180;4218;48.326;14.304;2023-08-17T07:49:03;98638.00;;;21.90
8362;BMP180;4218;48.326;14.304;2023-08-17T07:51:30;98635.00;;;22.10
8362;BMP180;4218;48.326;14.304;2023-08-17T07:54:02;98640.00;;;22.00
8362;BMP180;4218;48.326;14.304;2023-08-17T07:56:28;98640.00;;;22.10
8362;BMP180;4218;48.326;14.304;2023-08-17T07:58:57;98633.00;;;22.10
8362;BMP180;4218;48.326;14.304;2023-08-17T08:01:24;98634.00;;;22.10
8362;BMP180;4218;48.326;14.304;2023-08-17T08:03:57;98638.00;;;22.50
8362;BMP180;4218;48.326;14.304;2023-08-17T08:06:23;98635.00;;;22.80
8362;BMP180;4218;48.326;14.304;2023-08-17T08:08:49;98628.00;;;22.80
8362;BMP180;4218;48.326;14.304;2023-08-17T08:11:22;98627.00;;;22.50
8362;BMP180;4218;48.326;14.304;2023-08-17T08:13:48;98621.00;;;22.30
8362;BMP180;4218;48.326;14.304;2023-08-17T08:16:17;98619.00;;;22.50
8362;BMP180;4218;48.326;14.304;2023-08-17T08:18:42;98611.00;;;22.40
8362;BMP180;4218;48.326;14.304;2023-08-17T08:21:09;98616.00;;;22.50
8362;BMP180;4218;48.326;14.304;2023-08-17T08:23:34;98631.00;;;22.90
8362;BMP180;4218;48.326;14.304;2023-08-17T08:25:59;98620.00;;;23.00
8362;BMP180;4218;48.326;14.304;2023-08-17T08:28:26;98634.00;;;23.20
8362;BMP180;4218;48.326;14.304;2023-08-17T08:30:54;98633.00;;;23.30
8362;BMP180;4218;48.326;14.304;2023-08-17T08:33:28;98635.00;;;23.30
8362;BMP180;4218;48.326;14.304;2023-08-17T08:35:53;98630.00;;;23.30
8362;BMP180;4218;48.326;14.304;2023-08-17T08:38:18;98626.00;;;23.40
8362;BMP180;4218;48.326;14.304;2023-08-17T08:40:46;98622.00;;;23.40
8362;BMP180;4218;48.326;14.304;2023-08-17T08:43:14;98622.00;;;23.30
8362;BMP180;4218;48.326;14.304;2023-08-17T08:45:41;98625.00;;;23.50
8362;BMP180;4218;48.326;14.304;2023-08-17T08:48:11;98620.00;;;23.70
8362;BMP180;4218;48.326;14.304;2023-08-17T08:50:39;98621.00;;;23.80
8362;BMP180;4218;48.326;14.304;2023-08-17T08:53:11;98614.00;;;23.80
8362;BMP180;4218;48.326;14.304;2023-08-17T08:55:49;98607.00;;;23.90
8362;BMP180;4218;48.326;14.304;2023-08-17T08:58:16;98611.00;;;23.90
8362;BMP180;4218;48.326;14.304;2023-08-17T09:00:42;98608.00;;;23.80
8362;BMP180;4218;48.326;14.304;2023-08-17T09:03:08;98609.00;;;23.90
8362;BMP180;4218;48.326;14.304;2023-08-17T09:05:34;98610.00;;;23.90
8362;BMP180;4218;48.326;14.304;2023-08-17T09:08:00;98615.00;;;24.00
8362;BMP180;4218;48.326;14.304;2023-08-17T09:10:27;98606.00;;;23.80
8362;BMP180;4218;48.326;14.304;2023-08-17T09:12:53;98609.00;;;23.80
8362;BMP180;4218;48.326;14.304;2023-08-17T09:15:18;98611.00;;;23.80
8362;BMP180;4218;48.326;14.304;2023-08-17T09:17:44;98614.00;;;23.70
8362;BMP180;4218;48.326;14.304;2023-08-17T09:20:39;98608.00;;;23.90
8362;BMP180;4218;48.326;14.304;2023-08-17T09:23:09;98605.00;;;24.20
8362;BMP180;4218;48.326;14.304;2023-08-17T09:25:38;98603.00;;;24.30
8362;BMP180;4218;48.326;14.304;2023-08-17T09:28:11;98600.00;;;24.40
8362;BMP180;4218;48.326;14.304;2023-08-17T09:30:58;98606.00;;;24.70
8362;BMP180;4218;48.326;14.304;2023-08-17T09:33:28;98604.00;;;24.60
8362;BMP180;4218;48.326;14.304;2023-08-17T09:35:55;98598.00;;;24.50
8362;BMP180;4218;48.326;14.304;2023-08-17T09:38:21;98599.00;;;24.40
8362;BMP180;4218;48.326;14.304;2023-08-17T09:40:48;98591.00;;;24.40
8362;BMP180;4218;48.326;14.304;2023-08-17T09:43:14;98596.00;;;24.60
8362;BMP180;4218;48.326;14.304;2023-08-17T09:45:41;98592.00;;;24.50
8362;BMP180;4218;48.326;14.304;2023-08-17T09:48:08;98585.00;;;24.60
8362;BMP180;4218;48.326;14.304;2023-08-17T09:50:34;98593.00;;;25.00
8362;BMP180;4218;48.326;14.304;2023-08-17T09:53:01;98588.00;;;25.40
8362;BMP180;4218;48.326;14.304;2023-08-17T09:55:29;98583.00;;;25.70
8362;BMP180;4218;48.326;14.304;2023-08-17T09:57:55;98578.00;;;25.60
8362;BMP180;4218;48.326;14.304;2023-08-17T10:00:20;98581.00;;;25.60
8362;BMP180;4218;48.326;14.304;2023-08-17T10:02:49;98581.00;;;25.70
8362;BMP180;4218;48.326;14.304;2023-08-17T10:05:18;98583.00;;;25.80
8362;BMP180;4218;48.326;14.304;2023-08-17T10:07:47;98582.00;;;25.90
8362;BMP180;4218;48.326;14.304;2023-08-17T10:10:26;98580.00;;;25.90
8362;BMP180;4218;48.326;14.304;2023-08-17T10:13:12;98579.00;;;25.90
8362;BMP180;4218;48.326;14.304;2023-08-17T10:16:09;98578.00;;;26.10
8362;BMP180;4218;48.326;14.304;2023-08-17T10:21:28;98571.00;;;26.20
8362;BMP180;4218;48.326;14.304;2023-08-17T10:23:58;98576.00;;;26.20
8362;BMP180;4218;48.326;14.304;2023-08-17T10:26:25;98570.00;;;26.30
8362;BMP180;4218;48.326;14.304;2023-08-17T10:28:53;98570.00;;;26.50
8362;BMP180;4218;48.326;14.304;2023-08-17T10:31:20;98569.00;;;26.50
8362;BMP180;4218;48.326;14.304;2023-08-17T10:33:46;98563.00;;;26.40
8362;BMP180;4218;48.326;14.304;2023-08-17T10:36:19;98568.00;;;26.40
8362;BMP180;4218;48.326;14.304;2023-08-17T10:38:44;98566.00;;;26.50
8362;BMP180;4218;48.326;14.304;2023-08-17T10:41:11;98567.00;;;26.40
8362;BMP180;4218;48.326;14.304;2023-08-17T10:43:58;98566.00;;;26.40
8362;BMP180;4218;48.326;14.304;2023-08-17T10:46:37;98569.00;;;26.50
8362;BMP180;4218;48.326;14.304;2023-08-17T10:49:05;98564.00;;;26.50
8362;BMP180;4218;48.326;14.304;2023-08-17T10:51:31;98563.00;;;26.50
8362;BMP180;4218;48.326;14.304;2023-08-17T10:53:58;98566.00;;;26.80
8362;BMP180;4218;48.326;14.304;2023-08-17T10:56:27;98563.00;;;26.90
8362;BMP180;4218;48.326;14.304;2023-08-17T10:58:53;98573.00;;;26.90
8362;BMP180;4218;48.326;14.304;2023-08-17T11:01:31;98568.00;;;26.70
8362;BMP180;4218;48.326;14.304;2023-08-17T11:04:10;98564.00;;;26.80
8362;BMP180;4218;48.326;14.304;2023-08-17T11:06:43;98562.00;;;26.90
8362;BMP180;4218;48.326;14.304;2023-08-17T11:09:08;98559.00;;;26.90
8362;BMP180;4218;48.326;14.304;2023-08-17T11:11:34;98548.00;;;27.00
8362;BMP180;4218;48.326;14.304;2023-08-17T11:14:00;98554.00;;;27.10
8362;BMP180;4218;48.326;14.304;2023-08-17T11:16:29;98550.00;;;27.10
8362;BMP180;4218;48.326;14.304;2023-08-17T11:19:00;98547.00;;;27.20
8362;BMP180;4218;48.326;14.304;2023-08-17T11:21:25;98544.00;;;27.30
8362;BMP180;4218;48.326;14.304;2023-08-17T11:23:50;98547.00;;;27.40
8362;BMP180;4218;48.326;14.304;2023-08-17T11:26:17;98553.00;;;27.40
8362;BMP180;4218;48.326;14.304;2023-08-17T11:28:43;98546.00;;;27.50
8362;BMP180;4218;48.326;14.304;2023-08-17T11:31:11;98543.00;;;27.60
8362;BMP180;4218;48.326;14.304;2023-08-17T11:33:38;98539.00;;;27.60
8362;BMP180;4218;48.326;14.304;2023-08-17T11:36:06;98539.00;;;27.70
8362;BMP180;4218;48.326;14.304;2023-08-17T11:38:40;98539.00;;;27.70
8362;BMP180;4218;48.326;14.304;2023-08-17T11:41:07;98536.00;;;27.80
8362;BMP180;4218;48.326;14.304;2023-08-17T11:43:35;98528.00;;;27.80
8362;BMP180;4218;48.326;14.304;2023-08-17T11:46:01;98534.00;;;27.90
8362;BMP180;4218;48.326;14.304;2023-08-17T11:48:27;98530.00;;;28.10
8362;BMP180;4218;48.326;14.304;2023-08-17T11:50:53;98521.00;;;28.10
8362;BMP180;4218;48.326;14.304;2023-08-17T11:53:20;98530.00;;;28.10
8362;BMP180;4218;48.326;14.304;2023-08-17T11:55:46;98523.00;;;28.20
8362;BMP180;4218;48.326;14.304;2023-08-17T11:58:11;98525.00;;;28.00
8362;BMP180;4218;48.326;14.304;2023-08-17T12:00:39;98535.00;;;28.20
8362;BMP180;4218;48.326;14.304;2023-08-17T12:03:06;98521.00;;;28.20
8362;BMP180;4218;48.326;14.304;2023-08-17T12:05:32;98535.00;;;28.00
8362;BMP180;4218;48.326;14.304;2023-08-17T12:08:02;98528.00;;;28.10
8362;BMP180;4218;48.326;14.304;2023-08-17T12:10:31;98518.00;;;28.20
8362;BMP180;4218;48.326;14.304;2023-08-17T12:13:01;98524.00;;;28.10
8362;BMP180;4218;48.326;14.304;2023-08-17T12:15:34;98518.00;;;28.20
8362;BMP180;4218;48.326;14.304;2023-08-17T12:18:02;98521.00;;;28.30
8362;BMP180;4218;48.326;14.304;2023-08-17T12:20:27;98520.00;;;28.50
8362;BMP180;4218;48.326;14.304;2023-08-17T12:22:53;98524.00;;;28.40
8362;BMP180;4218;48.326;14.304;2023-08-17T12:25:21;98517.00;;;28.40
8362;BMP180;4218;48.326;14.304;2023-08-17T12:27:48;98514.00;;;28.40
8362;BMP180;4218;48.326;14.304;2023-08-17T12:30:27;98516.00;;;28.20
8362;BMP180;4218;48.326;14.304;2023-08-17T12:32:53;98500.00;;;28.40
8362;BMP180;4218;48.326;14.304;2023-08-17T12:35:18;98500.00;;;28.40
8362;BMP180;4218;48.326;14.304;2023-08-17T12:37:46;98495.00;;;28.60
8362;BMP180;4218;48.326;14.304;2023-08-17T12:40:12;98486.00;;;28.50
8362;BMP180;4218;48.326;14.304;2023-08-17T12:42:37;98476.00;;;28.50
8362;BMP180;4218;48.326;14.304;2023-08-17T12:45:03;98480.00;;;28.10
8362;BMP180;4218;48.326;14.304;2023-08-17T12:47:28;98488.00;;;28.30
8362;BMP180;4218;48.326;14.304;2023-08-17T12:49:53;98478.00;;;28.30
8362;BMP180;4218;48.326;14.304;2023-08-17T12:52:19;98486.00;;;28.30
8362;BMP180;4218;48.326;14.304;2023-08-17T12:54:44;98486.00;;;28.30
8362;BMP180;4218;48.326;14.304;2023-08-17T12:57:11;98487.00;;;28.40
8362;BMP180;4218;48.326;14.304;2023-08-17T12:59:36;98481.00;;;28.50
8362;BMP180;4218;48.326;14.304;2023-08-17T13:02:01;98474.00;;;28.50
8362;BMP180;4218;48.326;14.304;2023-08-17T13:04:27;98470.00;;;28.50
8362;BMP180;4218;48.326;14.304;2023-08-17T13:06:52;98471.00;;;28.60
8362;BMP180;4218;48.326;14.304;2023-08-17T13:09:21;98475.00;;;28.70
8362;BMP180;4218;48.326;14.304;2023-08-17T13:11:47;98467.00;;;28.70
8362;BMP180;4218;48.326;14.304;2023-08-17T13:14:16;98455.00;;;28.80
8362;BMP180;4218;48.326;14.304;2023-08-17T13:16:42;98460.00;;;29.00
8362;BMP180;4218;48.326;14.304;2023-08-17T13:19:07;98456.00;;;28.90
8362;BMP180;4218;48.326;14.304;2023-08-17T13:21:32;98452.00;;;28.80
8362;BMP180;4218;48.326;14.304;2023-08-17T13:23:58;98458.00;;;28.50
8362;BMP180;4218;48.326;14.304;2023-08-17T13:26:23;98466.00;;;28.30
8362;BMP180;4218;48.326;14.304;2023-08-17T13:28:49;98465.00;;;28.20
8362;BMP180;4218;48.326;14.304;2023-08-17T13:31:14;98454.00;;;28.20
8362;BMP180;4218;48.326;14.304;2023-08-17T13:33:41;98447.00;;;28.50
8362;BMP180;4218;48.326;14.304;2023-08-17T13:36:06;98448.00;;;28.60
8362;BMP180;4218;48.326;14.304;2023-08-17T13:38:31;98443.00;;;28.60
8362;BMP180;4218;48.326;14.304;2023-08-17T13:40:57;98446.00;;;28.50
8362;BMP180;4218;48.326;14.304;2023-08-17T13:43:22;98447.00;;;28.50
8362;BMP180;4218;48.326;14.304;2023-08-17T13:45:48;98456.00;;;28.30
8362;BMP180;4218;48.326;14.304;2023-08-17T13:48:13;98455.00;;;28.10
8362;BMP180;4218;48.326;14.304;2023-08-17T13:50:39;98446.00;;;28.00
8362;BMP180;4218;48.326;14.304;2023-08-17T13:53:04;98444.00;;;27.90
8362;BMP180;4218;48.326;14.304;2023-08-17T13:55:30;98449.00;;;28.00
8362;BMP180;4218;48.326;14.304;2023-08-17T13:57:57;98447.00;;;27.90
8362;BMP180;4218;48.326;14.304;2023-08-17T14:00:23;98440.00;;;27.80
8362;BMP180;4218;48.326;14.304;2023-08-17T14:02:49;98438.00;;;27.70
8362;BMP180;4218;48.326;14.304;2023-08-17T14:05:14;98434.00;;;27.50
8362;BMP180;4218;48.326;14.304;2023-08-17T14:07:39;98429.00;;;27.60
8362;BMP180;4218;48.326;14.304;2023-08-17T14:10:05;98430.00;;;27.40
8362;BMP180;4218;48.326;14.304;2023-08-17T14:12:31;98429.00;;;27.10
8362;BMP180;4218;48.326;14.304;2023-08-17T14:14:56;98426.00;;;27.20
8362;BMP180;4218;48.326;14.304;2023-08-17T14:17:22;98423.00;;;26.90
8362;BMP180;4218;48.326;14.304;2023-08-17T14:19:47;98424.00;;;27.00
8362;BMP180;4218;48.326;14.304;2023-08-17T14:22:13;98416.00;;;27.10
8362;BMP180;4218;48.326;14.304;2023-08-17T14:24:38;98424.00;;;27.00
8362;BMP180;4218;48.326;14.304;2023-08-17T14:27:03;98414.00;;;27.10
8362;BMP180;4218;48.326;14.304;2023-08-17T14:29:29;98420.00;;;27.20
8362;BMP180;4218;48.326;14.304;2023-08-17T14:31:54;98417.00;;;27.20